createdAt,value
2023-03-05T00:03:22.814Z,12.70
2023-03-05T00:08:24.479Z,13.20
2023-03-05T00:13:26.129Z,13.70
2023-03-05T00:18:27.590Z,13.70
2023-03-05T00:23:29.134Z,16.00
2023-03-05T00:28:30.595Z,12.90
2023-03-05T00:33:32.452Z,13.60
2023-03-05T00:38:35.486Z,12.80
2023-03-05T00:43:37.490Z,11.50
2023-03-05T00:48:39.139Z,11.70
2023-03-05T00:53:43.846Z,11.50
2023-03-05T00:58:45.326Z,14.70
2023-03-05T01:03:47.115Z,15.60
2023-03-05T01:08:48.682Z,18.80
2023-03-05T01:13:50.147Z,15.70
2023-03-05T01:18:52.411Z,16.10
2023-03-05T01:23:54.254Z,16.40
2023-03-05T01:28:55.760Z,11.00
2023-03-05T01:33:57.738Z,11.80
2023-03-05T01:38:59.294Z,11.00
2023-03-05T01:44:00.990Z,13.20
2023-03-05T01:49:11.601Z,12.70
2023-03-05T01:54:17.370Z,13.00
2023-03-05T01:59:20.061Z,10.10
2023-03-05T02:04:26.577Z,14.60
2023-03-05T02:09:28.826Z,11.60
2023-03-05T02:14:31.249Z,8.00
2023-03-05T02:19:50.850Z,9.00
2023-03-05T02:24:52.750Z,11.90
2023-03-05T02:29:54.248Z,7.60
2023-03-05T02:34:55.777Z,10.30
2023-03-05T02:39:57.260Z,10.30
2023-03-05T02:44:59.383Z,10.70
2023-03-05T02:50:01.020Z,12.60
2023-03-05T02:55:02.906Z,6.50
2023-03-05T03:00:06.078Z,11.80
2023-03-05T03:05:08.231Z,8.80
2023-03-05T03:10:10.912Z,11.50
2023-03-05T03:15:15.198Z,9.40
2023-03-05T03:20:18.161Z,11.60
2023-03-05T03:25:23.087Z,12.00
2023-03-05T03:30:24.644Z,12.70
2023-03-05T03:35:26.156Z,10.00
2023-03-05T03:40:27.814Z,12.20
2023-03-05T03:45:29.318Z,12.00
2023-03-05T03:50:31.274Z,13.60
2023-03-05T03:55:33.615Z,11.90
2023-03-05T04:00:35.394Z,11.70
2023-03-05T04:05:36.893Z,13.70
2023-03-05T04:10:39.947Z,10.70
2023-03-05T04:15:41.560Z,16.60
2023-03-05T04:20:43.052Z,14.20
2023-03-05T04:25:44.552Z,15.20
2023-03-05T04:30:46.436Z,12.40
2023-03-05T04:35:48.187Z,11.10
2023-03-05T04:40:50.066Z,13.50
2023-03-05T04:45:51.599Z,12.20
2023-03-05T04:50:53.160Z,12.50
2023-03-05T04:55:55.745Z,11.20
2023-03-05T05:01:02.507Z,12.60
2023-03-05T05:06:04.574Z,12.20
2023-03-05T05:11:08.018Z,10.50
2023-03-05T05:16:10.045Z,11.60
2023-03-05T05:21:13.886Z,10.20
2023-03-05T05:26:15.497Z,11.80
2023-03-05T05:31:18.018Z,11.70
2023-03-05T05:36:22.749Z,11.70
2023-03-05T05:41:24.813Z,11.20
2023-03-05T05:46:26.430Z,11.20
2023-03-05T05:51:28.136Z,9.10
2023-03-05T05:56:29.629Z,13.50
2023-03-05T06:01:33.434Z,13.30
2023-03-05T06:06:35.160Z,12.10
2023-03-05T06:11:38.014Z,12.50
2023-03-05T06:16:39.917Z,8.90
2023-03-05T06:21:43.127Z,10.10
2023-03-05T06:26:46.803Z,16.80
2023-03-05T06:31:48.261Z,10.80
2023-03-05T06:36:49.999Z,10.20
2023-03-05T06:41:52.681Z,8.90
2023-03-05T06:46:54.289Z,12.00
2023-03-05T06:51:55.742Z,20.40
2023-03-05T06:56:57.454Z,13.20
2023-03-05T07:01:59.187Z,11.40
2023-03-05T07:07:01.178Z,6.50
2023-03-05T07:12:02.774Z,11.40
2023-03-05T07:17:06.976Z,10.60
2023-03-05T07:22:08.937Z,12.70
2023-03-05T07:27:10.827Z,11.10
2023-03-05T07:32:12.569Z,14.00
2023-03-05T07:37:14.578Z,9.60
2023-03-05T07:42:16.258Z,10.90
2023-03-05T07:47:17.817Z,6.20
2023-03-05T07:52:19.369Z,8.10
2023-03-05T07:57:20.908Z,7.40
2023-03-05T08:02:23.103Z,5.50
2023-03-05T08:07:24.951Z,8.70
2023-03-05T08:12:26.451Z,6.30
2023-03-05T08:17:27.948Z,6.90
2023-03-05T08:22:30.134Z,6.20
2023-03-05T08:27:32.345Z,7.40
2023-03-05T08:32:33.957Z,5.30
2023-03-05T08:37:36.416Z,7.60
2023-03-05T08:42:37.903Z,7.30
2023-03-05T08:47:39.759Z,8.20
2023-03-05T08:52:41.343Z,7.00
2023-03-05T08:57:42.822Z,6.10
2023-03-05T09:02:44.440Z,8.10
2023-03-05T09:07:46.106Z,5.60
2023-03-05T09:12:49.262Z,11.10
2023-03-05T09:17:50.813Z,6.80
2023-03-05T09:22:52.847Z,6.80
2023-03-05T09:27:54.416Z,10.10
2023-03-05T09:32:55.990Z,9.50
2023-03-05T09:37:57.932Z,8.60
2023-03-05T09:43:25.297Z,12.10
2023-03-05T09:48:44.977Z,7.30
2023-03-05T09:54:07.452Z,9.80
2023-03-05T09:59:53.140Z,8.30
2023-03-05T10:05:09.705Z,11.90
2023-03-05T10:10:11.258Z,11.60
2023-03-05T10:15:14.535Z,11.30
2023-03-05T10:20:31.419Z,10.20
2023-03-05T10:26:02.084Z,9.60
2023-03-05T10:31:25.504Z,12.50
2023-03-05T10:36:47.001Z,8.40
2023-03-05T10:42:08.736Z,13.20
2023-03-05T10:47:49.972Z,10.40
2023-03-05T10:53:28.974Z,6.30
2023-03-05T10:58:34.517Z,19.40
2023-03-05T11:04:00.273Z,18.00
2023-03-05T11:09:34.195Z,19.60
2023-03-05T11:14:38.780Z,8.40
2023-03-05T11:19:40.323Z,9.40
2023-03-05T11:24:42.425Z,10.10
2023-03-05T11:29:49.883Z,13.80
2023-03-05T11:34:52.811Z,8.80
2023-03-05T11:40:20.388Z,7.00
2023-03-05T11:45:23.798Z,9.10
2023-03-05T11:50:28.910Z,6.90
2023-03-05T11:55:38.150Z,9.90
2023-03-05T12:00:44.436Z,7.70
2023-03-05T12:05:51.284Z,9.00
2023-03-05T12:10:53.410Z,7.60
2023-03-05T12:16:26.378Z,7.40
2023-03-05T12:21:38.887Z,9.00
2023-03-05T12:27:02.203Z,11.00
2023-03-05T12:32:06.361Z,7.80
2023-03-05T12:37:33.689Z,9.90
2023-03-05T12:42:35.489Z,10.60
2023-03-05T12:47:40.308Z,11.70
2023-03-05T12:52:46.030Z,20.80
2023-03-05T12:57:52.590Z,19.70
2023-03-05T13:03:00.632Z,14.00
2023-03-05T13:08:23.591Z,14.30
2023-03-05T13:13:27.611Z,18.80
2023-03-05T13:18:32.667Z,15.30
2023-03-05T13:23:35.579Z,14.20
2023-03-05T13:28:39.509Z,14.20
2023-03-05T13:33:49.079Z,14.30
2023-03-05T13:38:51.643Z,13.80
2023-03-05T13:43:56.179Z,12.50
2023-03-05T13:49:18.055Z,15.40
2023-03-05T13:54:21.378Z,14.30
2023-03-05T13:59:34.860Z,18.50
2023-03-05T14:04:41.255Z,15.10
2023-03-05T14:09:48.848Z,21.30
2023-03-05T14:14:51.306Z,18.80
2023-03-05T14:20:08.588Z,14.50
2023-03-05T14:25:37.709Z,20.90
2023-03-05T14:30:45.808Z,17.60
2023-03-05T14:35:52.488Z,12.20
2023-03-05T14:40:54.235Z,17.50
2023-03-05T14:45:55.775Z,15.30
2023-03-05T14:50:58.416Z,13.10
2023-03-05T14:55:59.929Z,13.80
2023-03-05T15:01:01.718Z,16.50
2023-03-05T15:06:03.432Z,12.10
2023-03-05T15:11:06.953Z,11.70
2023-03-05T15:16:15.630Z,13.00
2023-03-05T15:21:17.414Z,14.20
2023-03-05T15:26:18.996Z,16.50
2023-03-05T15:31:20.555Z,14.70
2023-03-05T15:36:22.275Z,24.60
2023-03-05T15:41:23.892Z,20.90
2023-03-05T15:46:25.755Z,15.10
2023-03-05T15:51:27.433Z,16.90
2023-03-05T15:56:28.974Z,36.90
2023-03-05T16:01:30.641Z,53.30
2023-03-05T16:06:34.556Z,38.00
2023-03-05T16:11:40.067Z,27.30
2023-03-05T16:16:41.780Z,26.80
2023-03-05T16:21:43.674Z,29.40
2023-03-05T16:26:45.172Z,28.00
2023-03-05T16:31:47.701Z,30.10
2023-03-05T16:36:52.728Z,61.70
2023-03-05T16:41:54.300Z,99.50
2023-03-05T16:46:56.476Z,59.80
2023-03-05T16:52:01.416Z,37.50
2023-03-05T16:57:09.063Z,35.10
2023-03-05T17:02:13.214Z,36.00
2023-03-05T17:07:15.021Z,28.10
2023-03-05T17:12:16.506Z,31.90
2023-03-05T17:17:18.070Z,49.10
2023-03-05T17:22:19.626Z,46.70
2023-03-05T17:27:22.861Z,40.30
2023-03-05T17:32:24.400Z,44.80
2023-03-05T17:37:25.993Z,42.00
2023-03-05T17:42:27.484Z,55.80
2023-03-05T17:47:32.627Z,37.60
2023-03-05T17:52:39.151Z,28.80
2023-03-05T17:57:42.506Z,25.20
2023-03-05T18:02:44.864Z,25.10
2023-03-05T18:07:46.715Z,30.20
2023-03-05T18:12:49.410Z,41.40
2023-03-05T18:17:51.571Z,31.30
2023-03-05T18:22:53.665Z,34.40
2023-03-05T18:27:55.551Z,44.40
2023-03-05T18:32:57.530Z,27.90
2023-03-05T18:38:00.529Z,39.60
2023-03-05T18:43:03.219Z,41.50
2023-03-05T18:48:04.730Z,45.00
2023-03-05T18:53:06.653Z,46.30
2023-03-05T18:58:15.836Z,45.70
2023-03-05T19:03:19.845Z,47.40
2023-03-05T19:08:23.155Z,47.60
2023-03-05T19:13:49.309Z,37.00
2023-03-05T19:19:15.444Z,37.30
2023-03-05T19:24:17.536Z,44.30
2023-03-05T19:29:19.233Z,39.30
2023-03-05T19:34:21.587Z,39.70
2023-03-05T19:39:23.182Z,40.90
2023-03-05T19:44:24.712Z,36.40
2023-03-05T19:49:26.417Z,44.20
2023-03-05T19:54:28.064Z,42.30
2023-03-05T19:59:29.642Z,40.10
2023-03-05T20:04:31.562Z,40.70
2023-03-05T20:09:33.073Z,38.60
2023-03-05T20:14:34.559Z,38.70
2023-03-05T20:19:36.390Z,31.90
2023-03-05T20:24:38.243Z,36.00
2023-03-05T20:29:39.743Z,41.10
2023-03-05T20:34:41.349Z,38.00
2023-03-05T20:39:42.871Z,41.80
2023-03-05T20:44:44.954Z,51.40
2023-03-05T20:49:46.441Z,40.90
2023-03-05T20:54:48.159Z,38.60
2023-03-05T20:59:49.658Z,38.20
2023-03-05T21:04:51.150Z,46.70
2023-03-05T21:09:55.323Z,46.20
2023-03-05T21:14:56.901Z,48.80
2023-03-05T21:19:58.425Z,53.10
2023-03-05T21:25:33.179Z,51.10
2023-03-05T21:30:40.883Z,49.20
2023-03-05T21:35:43.239Z,37.00
2023-03-05T21:40:48.786Z,39.80
2023-03-05T21:45:53.588Z,34.70
2023-03-05T21:50:55.555Z,35.10
2023-03-05T21:56:22.782Z,34.70
2023-03-05T22:01:24.307Z,34.60
2023-03-05T22:06:26.258Z,52.20
2023-03-05T22:11:27.742Z,48.60
2023-03-05T22:16:29.333Z,57.40
2023-03-05T22:21:32.094Z,64.40
2023-03-05T22:26:36.612Z,62.40
2023-03-05T22:31:38.936Z,41.30
2023-03-05T22:36:40.481Z,32.60
2023-03-05T22:41:42.341Z,31.70
2023-03-05T22:46:44.463Z,34.80
2023-03-05T22:51:46.235Z,27.30
2023-03-05T22:56:48.062Z,40.70
2023-03-05T23:01:49.890Z,30.30
2023-03-05T23:06:51.370Z,30.60
2023-03-05T23:11:53.230Z,30.30
2023-03-05T23:16:54.730Z,28.20
2023-03-05T23:21:56.603Z,31.50
2023-03-05T23:26:58.433Z,35.00
2023-03-05T23:31:59.902Z,25.70
2023-03-05T23:37:01.410Z,31.00
2023-03-05T23:42:03.267Z,26.60
2023-03-05T23:47:04.886Z,30.80
2023-03-05T23:52:06.538Z,31.60
2023-03-05T23:57:08.028Z,42.00
